sensor_id;sensor_type;location;lat;lon;timestamp;pressure;altitude;pressure_sealevel;temperature;humidity
75521;BME280;64102;48.628;9.002;2023-08-21T00:01:14;96647.59;;;20.87;100.00
75521;BME280;64102;48.628;9.002;2023-08-21T00:03:39;96645.78;;;20.87;100.00
75521;BME280;64102;48.628;9.002;2023-08-21T00:06:05;96646.97;;;20.85;100.00
75521;BME280;64102;48.628;9.002;2023-08-21T00:08:30;96643.72;;;20.83;100.00
75521;BME280;64102;48.628;9.002;2023-08-21T00:10:55;96647.34;;;20.82;100.00
75521;BME280;64102;48.628;9.002;2023-08-21T00:13:21;96650.78;;;20.82;100.00
75521;BME280;64102;48.628;9.002;2023-08-21T00:15:46;96647.78;;;20.85;100.00
75521;BME280;64102;48.628;9.002;2023-08-21T00:18:12;96648.03;;;20.90;100.00
75521;BME280;64102;48.628;9.002;2023-08-21T00:20:37;96643.22;;;20.94;100.00
75521;BME280;64102;48.628;9.002;2023-08-21T00:23:03;96650.09;;;20.95;100.00
75521;BME280;64102;48.628;9.002;2023-08-21T00:25:28;96639.41;;;20.96;100.00
75521;BME280;64102;48.628;9.002;2023-08-21T00:27:54;96640.84;;;20.99;100.00
75521;BME280;64102;48.628;9.002;2023-08-21T00:30:19;96640.22;;;20.97;100.00
75521;BME280;64102;48.628;9.002;2023-08-21T00:32:44;96634.34;;;20.95;100.00
75521;BME280;64102;48.628;9.002;2023-08-21T00:35:10;96645.84;;;20.94;100.00
75521;BME280;64102;48.628;9.002;2023-08-21T00:37:35;96637.34;;;20.92;100.00
75521;BME280;64102;48.628;9.002;2023-08-21T00:40:00;96632.50;;;20.89;100.00
75521;BME280;64102;48.628;9.002;2023-08-21T00:42:26;96627.25;;;20.89;100.00
75521;BME280;64102;48.628;9.002;2023-08-21T00:44:51;96636.13;;;20.88;100.00
75521;BME280;64102;48.628;9.002;2023-08-21T00:47:16;96631.03;;;20.86;100.00
75521;BME280;64102;48.628;9.002;2023-08-21T00:49:42;96621.38;;;20.87;100.00
75521;BME280;64102;48.628;9.002;2023-08-21T00:52:10;96624.16;;;20.85;100.00
75521;BME280;64102;48.628;9.002;2023-08-21T00:54:37;96629.63;;;20.84;100.00
75521;BME280;64102;48.628;9.002;2023-08-21T00:57:03;96628.00;;;20.83;100.00
75521;BME280;64102;48.628;9.002;2023-08-21T00:59:29;96632.81;;;20.79;100.00
75521;BME280;64102;48.628;9.002;2023-08-21T01:01:54;96629.69;;;20.69;100.00
75521;BME280;64102;48.628;9.002;2023-08-21T01:04:19;96625.56;;;20.60;100.00
75521;BME280;64102;48.628;9.002;2023-08-21T01:06:47;96621.25;;;20.52;100.00
75521;BME280;64102;48.628;9.002;2023-08-21T01:09:18;96627.25;;;20.46;100.00
75521;BME280;64102;48.628;9.002;2023-08-21T01:15:03;96622.72;;;20.40;100.00
75521;BME280;64102;48.628;9.002;2023-08-21T01:17:30;96625.63;;;20.45;100.00
75521;BME280;64102;48.628;9.002;2023-08-21T01:19:55;96626.88;;;20.49;100.00
75521;BME280;64102;48.628;9.002;2023-08-21T01:22:34;96624.63;;;20.46;100.00
75521;BME280;64102;48.628;9.002;2023-08-21T01:25:00;96622.38;;;20.43;100.00
75521;BME280;64102;48.628;9.002;2023-08-21T01:27:25;96621.75;;;20.41;100.00
75521;BME280;64102;48.628;9.002;2023-08-21T01:29:51;96617.97;;;20.44;100.00
75521;BME280;64102;48.628;9.002;2023-08-21T01:34:46;96624.56;;;20.40;100.00
75521;BME280;64102;48.628;9.002;2023-08-21T01:37:13;96630.00;;;20.38;100.00
75521;BME280;64102;48.628;9.002;2023-08-21T01:39:38;96627.53;;;20.37;100.00
75521;BME280;64102;48.628;9.002;2023-08-21T01:42:04;96626.72;;;20.36;100.00
75521;BME280;64102;48.628;9.002;2023-08-21T01:44:29;96632.34;;;20.33;100.00
75521;BME280;64102;48.628;9.002;2023-08-21T01:46:55;96622.25;;;20.30;100.00
75521;BME280;64102;48.628;9.002;2023-08-21T01:49:20;96626.22;;;20.26;100.00
75521;BME280;64102;48.628;9.002;2023-08-21T01:51:46;96625.94;;;20.21;100.00
75521;BME280;64102;48.628;9.002;2023-08-21T01:54:11;96627.66;;;20.14;100.00
75521;BME280;64102;48.628;9.002;2023-08-21T01:56:37;96620.75;;;20.06;100.00
75521;BME280;64102;48.628;9.002;2023-08-21T01:59:04;96617.03;;;20.01;100.00
75521;BME280;64102;48.628;9.002;2023-08-21T02:01:29;96618.78;;;19.94;100.00
75521;BME280;64102;48.628;9.002;2023-08-21T02:03:55;96616.34;;;19.92;100.00
75521;BME280;64102;48.628;9.002;2023-08-21T02:06:20;96619.38;;;19.96;100.00
75521;BME280;64102;48.628;9.002;2023-08-21T02:08:46;96619.88;;;19.85;100.00
75521;BME280;64102;48.628;9.002;2023-08-21T02:11:11;96613.19;;;19.82;100.00
75521;BME280;64102;48.628;9.002;2023-08-21T02:13:36;96609.94;;;19.80;100.00
75521;BME280;64102;48.628;9.002;2023-08-21T02:16:02;96617.63;;;19.82;100.00
75521;BME280;64102;48.628;9.002;2023-08-21T02:18:27;96615.81;;;19.82;100.00
75521;BME280;64102;48.628;9.002;2023-08-21T02:20:53;96613.19;;;19.82;100.00
75521;BME280;64102;48.628;9.002;2023-08-21T02:23:18;96613.38;;;19.81;100.00
75521;BME280;64102;48.628;9.002;2023-08-21T02:25:43;96614.75;;;19.77;100.00
75521;BME280;64102;48.628;9.002;2023-08-21T02:28:09;96619.50;;;19.73;100.00
75521;BME280;64102;48.628;9.002;2023-08-21T02:30:34;96618.72;;;19.73;100.00
75521;BME280;64102;48.628;9.002;2023-08-21T02:32:59;96613.22;;;19.67;100.00
75521;BME280;64102;48.628;9.002;2023-08-21T02:35:25;96618.00;;;19.64;100.00
75521;BME280;64102;48.628;9.002;2023-08-21T02:37:50;96618.78;;;19.64;100.00
75521;BME280;64102;48.628;9.002;2023-08-21T02:40:16;96624.03;;;19.64;100.00
75521;BME280;64102;48.628;9.002;2023-08-21T02:42:41;96629.47;;;19.63;100.00
75521;BME280;64102;48.628;9.002;2023-08-21T02:45:07;96626.84;;;19.63;100.00
75521;BME280;64102;48.628;9.002;2023-08-21T02:47:38;96629.66;;;19.61;100.00
75521;BME280;64102;48.628;9.002;2023-08-21T02:50:05;96626.94;;;19.55;100.00
75521;BME280;64102;48.628;9.002;2023-08-21T02:52:31;96630.13;;;19.50;100.00
75521;BME280;64102;48.628;9.002;2023-08-21T02:54:57;96625.59;;;19.44;100.00
75521;BME280;64102;48.628;9.002;2023-08-21T02:57:24;96622.66;;;19.39;100.00
75521;BME280;64102;48.628;9.002;2023-08-21T02:59:49;96626.63;;;19.35;100.00
75521;BME280;64102;48.628;9.002;2023-08-21T03:02:15;96628.97;;;19.30;100.00
75521;BME280;64102;48.628;9.002;2023-08-21T03:04:40;96625.63;;;19.21;100.00
75521;BME280;64102;48.628;9.002;2023-08-21T03:07:05;96624.19;;;19.19;100.00
75521;BME280;64102;48.628;9.002;2023-08-21T03:09:31;96625.72;;;19.13;100.00
75521;BME280;64102;48.628;9.002;2023-08-21T03:11:56;96624.44;;;19.09;100.00
75521;BME280;64102;48.628;9.002;2023-08-21T03:14:21;96624.78;;;19.06;100.00
75521;BME280;64102;48.628;9.002;2023-08-21T03:16:47;96621.38;;;19.06;100.00
75521;BME280;64102;48.628;9.002;2023-08-21T03:19:12;96620.91;;;19.02;100.00
75521;BME280;64102;48.628;9.002;2023-08-21T03:21:37;96627.47;;;18.98;100.00
75521;BME280;64102;48.628;9.002;2023-08-21T03:24:03;96622.97;;;18.92;100.00
75521;BME280;64102;48.628;9.002;2023-08-21T03:26:28;96627.09;;;18.87;100.00
75521;BME280;64102;48.628;9.002;2023-08-21T03:28:54;96622.56;;;18.81;100.00
75521;BME280;64102;48.628;9.002;2023-08-21T03:31:19;96627.50;;;18.75;100.00
75521;BME280;64102;48.628;9.002;2023-08-21T03:33:44;96621.00;;;18.71;100.00
75521;BME280;64102;48.628;9.002;2023-08-21T03:36:10;96621.34;;;18.68;100.00
75521;BME280;64102;48.628;9.002;2023-08-21T03:38:35;96630.94;;;18.76;100.00
75521;BME280;64102;48.628;9.002;2023-08-21T03:41:01;96621.28;;;18.76;100.00
75521;BME280;64102;48.628;9.002;2023-08-21T03:43:27;96625.53;;;18.77;100.00
75521;BME280;64102;48.628;9.002;2023-08-21T03:45:52;96619.50;;;18.77;100.00
75521;BME280;64102;48.628;9.002;2023-08-21T03:48:17;96619.66;;;18.75;100.00
75521;BME280;64102;48.628;9.002;2023-08-21T03:50:43;96612.81;;;18.74;100.00
75521;BME280;64102;48.628;9.002;2023-08-21T03:53:08;96618.50;;;18.78;100.00
75521;BME280;64102;48.628;9.002;2023-08-21T03:55:34;96624.84;;;18.84;100.00
75521;BME280;64102;48.628;9.002;2023-08-21T03:57:59;96625.47;;;18.86;100.00
75521;BME280;64102;48.628;9.002;2023-08-21T04:00:25;96630.53;;;18.87;100.00
75521;BME280;64102;48.628;9.002;2023-08-21T04:02:50;96633.97;;;18.88;100.00
75521;BME280;64102;48.628;9.002;2023-08-21T04:05:15;96635.22;;;18.92;100.00
75521;BME280;64102;48.628;9.002;2023-08-21T04:07:41;96638.13;;;18.97;100.00
75521;BME280;64102;48.628;9.002;2023-08-21T04:10:25;96646.44;;;19.00;100.00
75521;BME280;64102;48.628;9.002;2023-08-21T04:12:50;96641.19;;;19.00;100.00
75521;BME280;64102;48.628;9.002;2023-08-21T04:15:16;96646.75;;;18.97;100.00
75521;BME280;64102;48.628;9.002;2023-08-21T04:17:41;96645.25;;;18.88;100.00
75521;BME280;64102;48.628;9.002;2023-08-21T04:20:07;96646.09;;;18.81;100.00
75521;BME280;64102;48.628;9.002;2023-08-21T04:22:32;96646.91;;;18.81;100.00
75521;BME280;64102;48.628;9.002;2023-08-21T04:24:57;96653.31;;;18.78;100.00
75521;BME280;64102;48.628;9.002;2023-08-21T04:27:23;96650.41;;;18.73;100.00
75521;BME280;64102;48.628;9.002;2023-08-21T04:29:48;96661.56;;;18.67;100.00
75521;BME280;64102;48.628;9.002;2023-08-21T04:32:13;96658.66;;;18.62;100.00
75521;BME280;64102;48.628;9.002;2023-08-21T04:34:39;96651.16;;;18.59;100.00
75521;BME280;64102;48.628;9.002;2023-08-21T04:37:04;96659.00;;;18.59;100.00
75521;BME280;64102;48.628;9.002;2023-08-21T04:39:30;96657.66;;;18.63;100.00
75521;BME280;64102;48.628;9.002;2023-08-21T04:41:55;96663.72;;;18.64;100.00
75521;BME280;64102;48.628;9.002;2023-08-21T04:44:21;96660.94;;;18.65;100.00
75521;BME280;64102;48.628;9.002;2023-08-21T04:46:48;96665.28;;;18.73;100.00
75521;BME280;64102;48.628;9.002;2023-08-21T04:49:16;96656.75;;;18.79;100.00
75521;BME280;64102;48.628;9.002;2023-08-21T04:51:42;96660.00;;;18.81;100.00
75521;BME280;64102;48.628;9.002;2023-08-21T04:54:08;96660.75;;;18.90;100.00
75521;BME280;64102;48.628;9.002;2023-08-21T04:56:33;96659.69;;;18.99;100.00
75521;BME280;64102;48.628;9.002;2023-08-21T04:58:58;96656.47;;;19.11;100.00
75521;BME280;64102;48.628;9.002;2023-08-21T05:01:24;96659.72;;;19.13;100.00
75521;BME280;64102;48.628;9.002;2023-08-21T05:03:49;96663.59;;;19.17;100.00
75521;BME280;64102;48.628;9.002;2023-08-21T05:06:15;96658.00;;;19.20;100.00
75521;BME280;64102;48.628;9.002;2023-08-21T05:08:41;96658.66;;;19.22;100.00
75521;BME280;64102;48.628;9.002;2023-08-21T05:11:06;96667.84;;;19.33;100.00
75521;BME280;64102;48.628;9.002;2023-08-21T05:13:31;96665.47;;;19.46;100.00
75521;BME280;64102;48.628;9.002;2023-08-21T05:15:57;96670.81;;;19.67;100.00
75521;BME280;64102;48.628;9.002;2023-08-21T05:18:24;96674.06;;;19.84;100.00
75521;BME280;64102;48.628;9.002;2023-08-21T05:20:50;96672.59;;;20.11;100.00
75521;BME280;64102;48.628;9.002;2023-08-21T05:23:16;96685.78;;;20.32;100.00
75521;BME280;64102;48.628;9.002;2023-08-21T05:25:43;96679.13;;;20.51;100.00
75521;BME280;64102;48.628;9.002;2023-08-21T05:28:08;96680.22;;;20.57;100.00
75521;BME280;64102;48.628;9.002;2023-08-21T05:30:36;96689.94;;;20.63;100.00
75521;BME280;64102;48.628;9.002;2023-08-21T05:33:02;96682.06;;;20.63;100.00
75521;BME280;64102;48.628;9.002;2023-08-21T05:35:27;96685.63;;;20.76;100.00
75521;BME280;64102;48.628;9.002;2023-08-21T05:37:53;96689.84;;;20.92;100.00
75521;BME280;64102;48.628;9.002;2023-08-21T05:40:18;96689.03;;;21.13;100.00
75521;BME280;64102;48.628;9.002;2023-08-21T05:42:44;96690.59;;;21.28;100.00
75521;BME280;64102;48.628;9.002;2023-08-21T05:45:09;96691.91;;;21.46;100.00
75521;BME280;64102;48.628;9.002;2023-08-21T05:47:35;96694.25;;;21.62;100.00
75521;BME280;64102;48.628;9.002;2023-08-21T05:50:00;96696.19;;;21.81;100.00
75521;BME280;64102;48.628;9.002;2023-08-21T05:52:25;96697.84;;;21.88;100.00
75521;BME280;64102;48.628;9.002;2023-08-21T05:54:51;96693.97;;;22.12;100.00
75521;BME280;64102;48.628;9.002;2023-08-21T05:57:16;96690.81;;;22.37;100.00
75521;BME280;64102;48.628;9.002;2023-08-21T05:59:46;96692.50;;;22.64;100.00
75521;BME280;64102;48.628;9.002;2023-08-21T06:02:15;96682.06;;;22.90;98.09
75521;BME280;64102;48.628;9.002;2023-08-21T06:04:41;96687.75;;;23.20;96.64
75521;BME280;64102;48.628;9.002;2023-08-21T06:07:07;96684.91;;;23.41;95.04
75521;BME280;64102;48.628;9.002;2023-08-21T06:09:33;96681.25;;;23.69;93.52
75521;BME280;64102;48.628;9.002;2023-08-21T06:12:03;96685.59;;;24.14;92.14
75521;BME280;64102;48.628;9.002;2023-08-21T06:14:29;96693.28;;;24.29;87.33
75521;BME280;64102;48.628;9.002;2023-08-21T06:16:58;96686.22;;;24.61;85.56
75521;BME280;64102;48.628;9.002;2023-08-21T06:19:24;96689.28;;;24.95;83.22
75521;BME280;64102;48.628;9.002;2023-08-21T06:21:49;96690.00;;;25.09;80.63
75521;BME280;64102;48.628;9.002;2023-08-21T06:24:15;96687.59;;;25.32;78.75
75521;BME280;64102;48.628;9.002;2023-08-21T06:26:40;96698.28;;;25.44;78.43
75521;BME280;64102;48.628;9.002;2023-08-21T06:29:05;96693.09;;;25.31;78.31
75521;BME280;64102;48.628;9.002;2023-08-21T06:31:31;96697.69;;;25.85;77.22
75521;BME280;64102;48.628;9.002;2023-08-21T06:33:56;96700.81;;;26.18;74.04
75521;BME280;64102;48.628;9.002;2023-08-21T06:36:22;96696.47;;;26.42;71.10
75521;BME280;64102;48.628;9.002;2023-08-21T06:38:47;96698.22;;;26.48;73.19
75521;BME280;64102;48.628;9.002;2023-08-21T06:41:13;96700.22;;;26.83;69.42
75521;BME280;64102;48.628;9.002;2023-08-21T06:43:38;96704.72;;;27.24;69.05
75521;BME280;64102;48.628;9.002;2023-08-21T06:46:04;96704.41;;;27.32;67.59
75521;BME280;64102;48.628;9.002;2023-08-21T06:48:30;96704.00;;;27.58;68.89
75521;BME280;64102;48.628;9.002;2023-08-21T06:50:55;96703.13;;;27.46;67.63
75521;BME280;64102;48.628;9.002;2023-08-21T06:53:21;96701.22;;;27.76;65.47
75521;BME280;64102;48.628;9.002;2023-08-21T06:55:47;96706.84;;;27.91;65.88
75521;BME280;64102;48.628;9.002;2023-08-21T06:58:12;96711.94;;;28.16;63.98
75521;BME280;64102;48.628;9.002;2023-08-21T07:00:38;96708.47;;;28.56;64.03
75521;BME280;64102;48.628;9.002;2023-08-21T07:03:03;96701.81;;;28.41;62.04
75521;BME280;64102;48.628;9.002;2023-08-21T07:05:32;96709.66;;;28.48;61.15
75521;BME280;64102;48.628;9.002;2023-08-21T07:07:57;96702.53;;;28.77;61.65
75521;BME280;64102;48.628;9.002;2023-08-21T07:10:23;96707.16;;;28.98;60.68
75521;BME280;64102;48.628;9.002;2023-08-21T07:12:49;96706.47;;;29.19;58.41
75521;BME280;64102;48.628;9.002;2023-08-21T07:15:14;96709.50;;;29.11;59.50
75521;BME280;64102;48.628;9.002;2023-08-21T07:17:40;96712.38;;;28.93;61.77
75521;BME280;64102;48.628;9.002;2023-08-21T07:20:07;96709.97;;;29.37;60.48
75521;BME280;64102;48.628;9.002;2023-08-21T07:22:33;96706.66;;;29.29;59.54
75521;BME280;64102;48.628;9.002;2023-08-21T07:24:58;96712.53;;;29.98;57.21
75521;BME280;64102;48.628;9.002;2023-08-21T07:27:26;96715.50;;;29.85;56.29
75521;BME280;64102;48.628;9.002;2023-08-21T07:29:51;96715.69;;;29.95;55.25
75521;BME280;64102;48.628;9.002;2023-08-21T07:32:16;96710.88;;;30.36;55.14
75521;BME280;64102;48.628;9.002;2023-08-21T07:34:42;96714.28;;;30.75;56.58
75521;BME280;64102;48.628;9.002;2023-08-21T07:37:08;96715.44;;;30.84;52.99
75521;BME280;64102;48.628;9.002;2023-08-21T07:39:34;96718.19;;;31.16;51.22
75521;BME280;64102;48.628;9.002;2023-08-21T07:41:59;96723.78;;;30.65;52.52
75521;BME280;64102;48.628;9.002;2023-08-21T07:44:26;96723.13;;;31.29;54.55
75521;BME280;64102;48.628;9.002;2023-08-21T07:46:51;96716.59;;;31.46;49.59
75521;BME280;64102;48.628;9.002;2023-08-21T07:49:17;96727.56;;;31.82;48.73
75521;BME280;64102;48.628;9.002;2023-08-21T07:51:42;96720.19;;;31.62;48.21
75521;BME280;64102;48.628;9.002;2023-08-21T07:54:07;96721.97;;;31.88;47.88
75521;BME280;64102;48.628;9.002;2023-08-21T07:56:33;96723.91;;;32.45;46.78
75521;BME280;64102;48.628;9.002;2023-08-21T07:59:00;96721.47;;;33.26;44.70
75521;BME280;64102;48.628;9.002;2023-08-21T08:01:26;96714.47;;;33.10;47.86
75521;BME280;64102;48.628;9.002;2023-08-21T08:03:52;96721.13;;;32.92;47.38
75521;BME280;64102;48.628;9.002;2023-08-21T08:06:17;96726.06;;;32.48;46.41
75521;BME280;64102;48.628;9.002;2023-08-21T08:08:43;96721.69;;;32.94;46.42
75521;BME280;64102;48.628;9.002;2023-08-21T08:11:09;96719.13;;;32.57;45.53
75521;BME280;64102;48.628;9.002;2023-08-21T08:13:34;96722.28;;;33.16;45.03
75521;BME280;64102;48.628;9.002;2023-08-21T08:15:59;96726.22;;;33.09;45.61
75521;BME280;64102;48.628;9.002;2023-08-21T08:18:25;96730.03;;;33.58;44.73
75521;BME280;64102;48.628;9.002;2023-08-21T08:20:51;96723.34;;;33.41;43.47
75521;BME280;64102;48.628;9.002;2023-08-21T08:23:16;96719.53;;;34.23;41.42
75521;BME280;64102;48.628;9.002;2023-08-21T08:25:42;96726.81;;;33.97;43.61
75521;BME280;64102;48.628;9.002;2023-08-21T08:28:07;96721.47;;;33.71;45.61
75521;BME280;64102;48.628;9.002;2023-08-21T08:30:33;96723.53;;;34.25;43.48
75521;BME280;64102;48.628;9.002;2023-08-21T08:32:59;96718.53;;;33.78;43.01
75521;BME280;64102;48.628;9.002;2023-08-21T08:35:24;96727.09;;;33.85;44.09
75521;BME280;64102;48.628;9.002;2023-08-21T08:37:50;96726.78;;;33.06;46.17
75521;BME280;64102;48.628;9.002;2023-08-21T08:40:15;96722.22;;;32.29;47.92
75521;BME280;64102;48.628;9.002;2023-08-21T08:42:41;96724.56;;;32.82;45.43
75521;BME280;64102;48.628;9.002;2023-08-21T08:45:07;96720.41;;;33.72;44.22
75521;BME280;64102;48.628;9.002;2023-08-21T08:47:33;96725.50;;;33.79;42.74
75521;BME280;64102;48.628;9.002;2023-08-21T08:50:02;96726.72;;;34.96;42.17
75521;BME280;64102;48.628;9.002;2023-08-21T08:52:31;96719.38;;;35.17;40.37
75521;BME280;64102;48.628;9.002;2023-08-21T08:54:59;96722.31;;;35.49;38.71
75521;BME280;64102;48.628;9.002;2023-08-21T08:57:24;96718.84;;;34.56;42.38
75521;BME280;64102;48.628;9.002;2023-08-21T08:59:50;96728.34;;;35.36;40.26
75521;BME280;64102;48.628;9.002;2023-08-21T09:02:15;96727.34;;;35.27;41.45
75521;BME280;64102;48.628;9.002;2023-08-21T09:04:41;96714.41;;;34.36;43.39
75521;BME280;64102;48.628;9.002;2023-08-21T09:07:10;96717.69;;;35.26;42.04
75521;BME280;64102;48.628;9.002;2023-08-21T09:09:46;96726.34;;;34.64;42.87
75521;BME280;64102;48.628;9.002;2023-08-21T09:12:12;96718.00;;;34.76;41.55
75521;BME280;64102;48.628;9.002;2023-08-21T09:14:41;96717.50;;;34.64;43.52
75521;BME280;64102;48.628;9.002;2023-08-21T09:17:07;96713.94;;;35.22;41.99
75521;BME280;64102;48.628;9.002;2023-08-21T09:19:33;96726.22;;;34.94;44.73
75521;BME280;64102;48.628;9.002;2023-08-21T09:21:58;96715.97;;;34.42;44.86
75521;BME280;64102;48.628;9.002;2023-08-21T09:24:24;96717.09;;;34.95;42.20
75521;BME280;64102;48.628;9.002;2023-08-21T09:26:50;96718.56;;;35.12;40.83
75521;BME280;64102;48.628;9.002;2023-08-21T09:29:15;96712.63;;;35.20;40.75
75521;BME280;64102;48.628;9.002;2023-08-21T09:31:41;96716.06;;;35.30;40.68
75521;BME280;64102;48.628;9.002;2023-08-21T09:34:08;96720.19;;;34.69;40.68
75521;BME280;64102;48.628;9.002;2023-08-21T09:36:34;96718.56;;;35.12;42.28
75521;BME280;64102;48.628;9.002;2023-08-21T09:39:01;96716.69;;;35.17;41.10
75521;BME280;64102;48.628;9.002;2023-08-21T09:41:27;96711.94;;;34.45;42.47
75521;BME280;64102;48.628;9.002;2023-08-21T09:43:53;96719.78;;;34.11;41.98
75521;BME280;64102;48.628;9.002;2023-08-21T09:46:24;96713.94;;;34.19;41.72
75521;BME280;64102;48.628;9.002;2023-08-21T09:48:54;96713.59;;;34.31;42.78
75521;BME280;64102;48.628;9.002;2023-08-21T09:51:20;96717.56;;;35.02;41.40
75521;BME280;64102;48.628;9.002;2023-08-21T09:53:48;96712.13;;;34.69;38.69
75521;BME280;64102;48.628;9.002;2023-08-21T09:56:14;96710.16;;;34.10;42.66
75521;BME280;64102;48.628;9.002;2023-08-21T09:58:39;96712.00;;;34.25;42.80
75521;BME280;64102;48.628;9.002;2023-08-21T10:01:06;96709.78;;;34.47;41.24
75521;BME280;64102;48.628;9.002;2023-08-21T10:03:38;96709.13;;;34.06;41.50
75521;BME280;64102;48.628;9.002;2023-08-21T10:06:07;96705.41;;;33.61;42.29
75521;BME280;64102;48.628;9.002;2023-08-21T10:08:37;96703.00;;;33.24;42.41
75521;BME280;64102;48.628;9.002;2023-08-21T10:11:05;96701.38;;;33.54;41.29
75521;BME280;64102;48.628;9.002;2023-08-21T10:13:32;96706.88;;;34.38;39.20
75521;BME280;64102;48.628;9.002;2023-08-21T10:15:59;96703.31;;;36.04;38.35
75521;BME280;64102;48.628;9.002;2023-08-21T10:18:36;96692.59;;;35.41;37.95
75521;BME280;64102;48.628;9.002;2023-08-21T10:23:38;96690.66;;;36.52;35.94
75521;BME280;64102;48.628;9.002;2023-08-21T10:26:09;96681.19;;;37.80;33.20
75521;BME280;64102;48.628;9.002;2023-08-21T10:28:51;96684.06;;;38.43;32.56
75521;BME280;64102;48.628;9.002;2023-08-21T10:31:33;96680.94;;;39.00;31.04
75521;BME280;64102;48.628;9.002;2023-08-21T10:34:01;96677.72;;;39.64;30.84
75521;BME280;64102;48.628;9.002;2023-08-21T10:36:40;96674.28;;;39.95;29.51
75521;BME280;64102;48.628;9.002;2023-08-21T10:39:26;96668.00;;;39.10;32.28
75521;BME280;64102;48.628;9.002;2023-08-21T10:47:32;96669.56;;;38.26;31.95
75521;BME280;64102;48.628;9.002;2023-08-21T10:50:02;96666.50;;;38.68;30.96
75521;BME280;64102;48.628;9.002;2023-08-21T10:52:41;96669.91;;;38.87;31.50
75521;BME280;64102;48.628;9.002;2023-08-21T10:55:11;96667.78;;;38.71;30.63
75521;BME280;64102;48.628;9.002;2023-08-21T10:57:37;96664.66;;;38.00;32.08
75521;BME280;64102;48.628;9.002;2023-08-21T11:00:09;96664.38;;;38.43;31.84
75521;BME280;64102;48.628;9.002;2023-08-21T11:02:35;96669.00;;;39.90;28.94
75521;BME280;64102;48.628;9.002;2023-08-21T11:05:01;96661.84;;;39.63;29.85
75521;BME280;64102;48.628;9.002;2023-08-21T11:07:31;96668.47;;;39.79;30.42
75521;BME280;64102;48.628;9.002;2023-08-21T11:10:01;96668.94;;;39.06;32.25
75521;BME280;64102;48.628;9.002;2023-08-21T11:12:27;96665.31;;;38.74;32.72
75521;BME280;64102;48.628;9.002;2023-08-21T11:14:53;96652.16;;;40.49;28.39
75521;BME280;64102;48.628;9.002;2023-08-21T11:17:18;96650.72;;;40.43;28.02
75521;BME280;64102;48.628;9.002;2023-08-21T11:19:44;96667.81;;;40.13;28.34
75521;BME280;64102;48.628;9.002;2023-08-21T11:22:10;96665.03;;;40.27;28.56
75521;BME280;64102;48.628;9.002;2023-08-21T11:24:41;96674.25;;;38.97;30.88
75521;BME280;64102;48.628;9.002;2023-08-21T11:27:11;96661.94;;;37.41;35.37
75521;BME280;64102;48.628;9.002;2023-08-21T11:29:49;96668.84;;;36.11;36.85
75521;BME280;64102;48.628;9.002;2023-08-21T11:32:20;96660.44;;;36.17;36.64
75521;BME280;64102;48.628;9.002;2023-08-21T11:34:54;96659.00;;;36.01;38.29
75521;BME280;64102;48.628;9.002;2023-08-21T11:37:24;96656.03;;;34.13;40.44
75521;BME280;64102;48.628;9.002;2023-08-21T11:39:51;96665.66;;;32.47;43.33
75521;BME280;64102;48.628;9.002;2023-08-21T11:42:19;96663.00;;;32.57;43.59
75521;BME280;64102;48.628;9.002;2023-08-21T11:44:50;96654.97;;;32.52;43.51
75521;BME280;64102;48.628;9.002;2023-08-21T11:47:17;96668.56;;;32.46;44.47
75521;BME280;64102;48.628;9.002;2023-08-21T11:49:43;96660.31;;;32.52;45.12
75521;BME280;64102;48.628;9.002;2023-08-21T11:52:11;96657.16;;;32.65;44.00
75521;BME280;64102;48.628;9.002;2023-08-21T11:54:38;96647.84;;;32.93;42.71
75521;BME280;64102;48.628;9.002;2023-08-21T11:57:05;96655.03;;;34.68;40.82
75521;BME280;64102;48.628;9.002;2023-08-21T11:59:31;96651.25;;;35.42;37.88
75521;BME280;64102;48.628;9.002;2023-08-21T12:01:56;96650.69;;;35.11;37.07
75521;BME280;64102;48.628;9.002;2023-08-21T12:04:22;96653.50;;;33.52;40.22
75521;BME280;64102;48.628;9.002;2023-08-21T12:06:47;96649.56;;;32.37;43.89
75521;BME280;64102;48.628;9.002;2023-08-21T12:09:12;96643.44;;;32.41;44.56
75521;BME280;64102;48.628;9.002;2023-08-21T12:11:38;96647.59;;;32.90;42.41
75521;BME280;64102;48.628;9.002;2023-08-21T12:14:04;96646.44;;;34.61;39.69
75521;BME280;64102;48.628;9.002;2023-08-21T12:16:29;96645.84;;;35.13;38.54
75521;BME280;64102;48.628;9.002;2023-08-21T12:18:55;96643.72;;;35.97;36.16
75521;BME280;64102;48.628;9.002;2023-08-21T12:21:25;96639.66;;;36.47;34.78
75521;BME280;64102;48.628;9.002;2023-08-21T12:23:50;96645.25;;;37.39;33.29
75521;BME280;64102;48.628;9.002;2023-08-21T12:26:16;96640.72;;;38.62;31.10
75521;BME280;64102;48.628;9.002;2023-08-21T12:28:48;96650.88;;;38.92;30.18
75521;BME280;64102;48.628;9.002;2023-08-21T12:31:14;96635.66;;;39.41;29.49
75521;BME280;64102;48.628;9.002;2023-08-21T12:33:40;96637.53;;;39.32;30.17
75521;BME280;64102;48.628;9.002;2023-08-21T12:36:05;96626.25;;;39.69;28.01
75521;BME280;64102;48.628;9.002;2023-08-21T12:38:30;96629.44;;;39.71;30.70
75521;BME280;64102;48.628;9.002;2023-08-21T12:40:56;96621.47;;;39.66;29.31
75521;BME280;64102;48.628;9.002;2023-08-21T12:43:22;96621.94;;;39.91;29.90
75521;BME280;64102;48.628;9.002;2023-08-21T12:45:47;96618.44;;;39.99;29.12
75521;BME280;64102;48.628;9.002;2023-08-21T12:48:13;96612.38;;;39.93;29.01
75521;BME280;64102;48.628;9.002;2023-08-21T12:50:38;96619.25;;;39.15;27.78
75521;BME280;64102;48.628;9.002;2023-08-21T12:53:03;96617.00;;;38.86;29.12
75521;BME280;64102;48.628;9.002;2023-08-21T12:55:29;96603.97;;;38.03;29.02
75521;BME280;64102;48.628;9.002;2023-08-21T12:57:56;96602.53;;;37.32;29.87
75521;BME280;64102;48.628;9.002;2023-08-21T13:00:21;96606.00;;;37.19;30.65
75521;BME280;64102;48.628;9.002;2023-08-21T13:02:47;96601.66;;;37.23;29.99
75521;BME280;64102;48.628;9.002;2023-08-21T13:05:12;96608.72;;;35.25;34.74